sensor_id;sensor_type;location;lat;lon;timestamp;P1;durP1;ratioP1;P2;durP2;ratioP2
18822;SDS011;9540;51.550;7.980;2023-02-03T00:00:08;49.97;;;28.05;;
18822;SDS011;9540;51.550;7.980;2023-02-03T00:02:37;46.75;;;28.13;;
18822;SDS011;9540;51.550;7.980;2023-02-03T00:05:05;51.25;;;27.88;;
18822;SDS011;9540;51.550;7.980;2023-02-03T00:07:33;55.45;;;28.83;;
18822;SDS011;9540;51.550;7.980;2023-02-03T00:10:04;42.35;;;27.52;;
18822;SDS011;9540;51.550;7.980;2023-02-03T00:12:33;47.08;;;29.02;;
18822;SDS011;9540;51.550;7.980;2023-02-03T00:15:00;51.13;;;27.45;;
18822;SDS011;9540;51.550;7.980;2023-02-03T00:17:27;49.42;;;26.73;;
18822;SDS011;9540;51.550;7.980;2023-02-03T00:19:56;46.80;;;26.90;;
18822;SDS011;9540;51.550;7.980;2023-02-03T00:22:23;41.13;;;25.65;;
18822;SDS011;9540;51.550;7.980;2023-02-03T00:24:50;45.30;;;26.20;;
18822;SDS011;9540;51.550;7.980;2023-02-03T00:27:17;42.92;;;25.33;;
18822;SDS011;9540;51.550;7.980;2023-02-03T00:29:44;41.78;;;24.58;;
18822;SDS011;9540;51.550;7.980;2023-02-03T00:32:11;46.00;;;26.88;;
18822;SDS011;9540;51.550;7.980;2023-02-03T00:34:38;41.80;;;24.73;;
18822;SDS011;9540;51.550;7.980;2023-02-03T00:37:07;41.83;;;24.52;;
18822;SDS011;9540;51.550;7.980;2023-02-03T00:39:34;41.55;;;24.83;;
18822;SDS011;9540;51.550;7.980;2023-02-03T00:42:02;39.28;;;24.40;;
18822;SDS011;9540;51.550;7.980;2023-02-03T00:44:29;41.38;;;24.13;;
18822;SDS011;9540;51.550;7.980;2023-02-03T00:46:57;35.58;;;23.83;;
18822;SDS011;9540;51.550;7.980;2023-02-03T00:49:24;36.85;;;23.13;;
18822;SDS011;9540;51.550;7.980;2023-02-03T00:51:51;36.17;;;22.70;;
18822;SDS011;9540;51.550;7.980;2023-02-03T00:54:20;37.08;;;23.35;;
18822;SDS011;9540;51.550;7.980;2023-02-03T00:56:47;36.05;;;21.42;;
18822;SDS011;9540;51.550;7.980;2023-02-03T00:59:14;38.22;;;20.92;;
18822;SDS011;9540;51.550;7.980;2023-02-03T01:01:41;34.50;;;21.92;;
18822;SDS011;9540;51.550;7.980;2023-02-03T01:04:08;35.25;;;21.00;;
18822;SDS011;9540;51.550;7.980;2023-02-03T01:06:36;35.05;;;20.08;;
18822;SDS011;9540;51.550;7.980;2023-02-03T01:09:05;32.70;;;19.98;;
18822;SDS011;9540;51.550;7.980;2023-02-03T01:11:34;38.70;;;21.50;;
18822;SDS011;9540;51.550;7.980;2023-02-03T01:14:01;33.60;;;19.75;;
18822;SDS011;9540;51.550;7.980;2023-02-03T01:16:28;32.60;;;19.25;;
18822;SDS011;9540;51.550;7.980;2023-02-03T01:19:00;34.03;;;18.73;;
18822;SDS011;9540;51.550;7.980;2023-02-03T01:21:27;32.65;;;20.20;;
18822;SDS011;9540;51.550;7.980;2023-02-03T01:23:54;33.70;;;19.83;;
18822;SDS011;9540;51.550;7.980;2023-02-03T01:26:22;29.02;;;19.05;;
18822;SDS011;9540;51.550;7.980;2023-02-03T01:28:51;33.13;;;19.70;;
18822;SDS011;9540;51.550;7.980;2023-02-03T01:31:19;30.90;;;20.42;;
18822;SDS011;9540;51.550;7.980;2023-02-03T01:33:49;35.45;;;20.33;;
18822;SDS011;9540;51.550;7.980;2023-02-03T01:36:18;29.70;;;19.20;;
18822;SDS011;9540;51.550;7.980;2023-02-03T01:38:47;28.30;;;18.80;;
18822;SDS011;9540;51.550;7.980;2023-02-03T01:41:15;38.08;;;19.23;;
18822;SDS011;9540;51.550;7.980;2023-02-03T01:43:44;34.47;;;18.90;;
18822;SDS011;9540;51.550;7.980;2023-02-03T01:46:17;28.70;;;17.88;;
18822;SDS011;9540;51.550;7.980;2023-02-03T01:48:51;34.17;;;20.38;;
18822;SDS011;9540;51.550;7.980;2023-02-03T01:51:19;33.67;;;17.88;;
18822;SDS011;9540;51.550;7.980;2023-02-03T01:53:48;30.50;;;18.73;;
18822;SDS011;9540;51.550;7.980;2023-02-03T01:56:17;27.25;;;17.85;;
18822;SDS011;9540;51.550;7.980;2023-02-03T01:58:44;31.25;;;18.95;;
18822;SDS011;9540;51.550;7.980;2023-02-03T02:01:13;32.42;;;21.52;;
18822;SDS011;9540;51.550;7.980;2023-02-03T02:03:43;30.13;;;19.80;;
18822;SDS011;9540;51.550;7.980;2023-02-03T02:06:13;34.35;;;20.70;;
18822;SDS011;9540;51.550;7.980;2023-02-03T02:08:41;33.83;;;20.70;;
18822;SDS011;9540;51.550;7.980;2023-02-03T02:11:12;34.83;;;21.85;;
18822;SDS011;9540;51.550;7.980;2023-02-03T02:13:39;36.75;;;21.08;;
18822;SDS011;9540;51.550;7.980;2023-02-03T02:16:09;33.20;;;20.73;;
18822;SDS011;9540;51.550;7.980;2023-02-03T02:18:46;34.95;;;21.45;;
18822;SDS011;9540;51.550;7.980;2023-02-03T02:21:35;35.53;;;21.30;;
18822;SDS011;9540;51.550;7.980;2023-02-03T02:24:30;39.83;;;20.95;;
18822;SDS011;9540;51.550;7.980;2023-02-03T02:27:25;29.67;;;19.55;;
18822;SDS011;9540;51.550;7.980;2023-02-03T02:33:14;34.13;;;19.48;;
18822;SDS011;9540;51.550;7.980;2023-02-03T02:35:54;34.42;;;20.20;;
18822;SDS011;9540;51.550;7.980;2023-02-03T02:38:32;30.60;;;19.38;;
18822;SDS011;9540;51.550;7.980;2023-02-03T02:41:07;31.60;;;19.63;;
18822;SDS011;9540;51.550;7.980;2023-02-03T02:43:41;34.92;;;20.30;;
18822;SDS011;9540;51.550;7.980;2023-02-03T02:46:12;36.20;;;20.02;;
18822;SDS011;9540;51.550;7.980;2023-02-03T02:48:45;32.03;;;19.05;;
18822;SDS011;9540;51.550;7.980;2023-02-03T02:51:17;37.13;;;19.50;;
18822;SDS011;9540;51.550;7.980;2023-02-03T02:53:48;30.13;;;17.83;;
18822;SDS011;9540;51.550;7.980;2023-02-03T02:56:20;30.98;;;20.08;;
18822;SDS011;9540;51.550;7.980;2023-02-03T02:58:49;32.63;;;18.35;;
18822;SDS011;9540;51.550;7.980;2023-02-03T03:01:17;33.22;;;19.20;;
18822;SDS011;9540;51.550;7.980;2023-02-03T03:03:46;29.85;;;17.77;;
18822;SDS011;9540;51.550;7.980;2023-02-03T03:06:14;31.38;;;18.67;;
18822;SDS011;9540;51.550;7.980;2023-02-03T03:08:45;29.27;;;16.77;;
18822;SDS011;9540;51.550;7.980;2023-02-03T03:11:16;30.25;;;18.85;;
18822;SDS011;9540;51.550;7.980;2023-02-03T03:13:47;32.92;;;18.65;;
18822;SDS011;9540;51.550;7.980;2023-02-03T03:16:19;28.88;;;18.73;;
18822;SDS011;9540;51.550;7.980;2023-02-03T03:18:50;36.05;;;19.15;;
18822;SDS011;9540;51.550;7.980;2023-02-03T03:21:21;26.88;;;17.52;;
18822;SDS011;9540;51.550;7.980;2023-02-03T03:23:52;29.98;;;18.50;;
18822;SDS011;9540;51.550;7.980;2023-02-03T03:26:24;33.60;;;16.95;;
18822;SDS011;9540;51.550;7.980;2023-02-03T03:28:56;29.20;;;17.67;;
18822;SDS011;9540;51.550;7.980;2023-02-03T03:31:28;24.30;;;16.45;;
18822;SDS011;9540;51.550;7.980;2023-02-03T03:33:57;27.13;;;17.77;;
18822;SDS011;9540;51.550;7.980;2023-02-03T03:36:26;26.45;;;17.00;;
18822;SDS011;9540;51.550;7.980;2023-02-03T03:38:57;27.73;;;16.42;;
18822;SDS011;9540;51.550;7.980;2023-02-03T03:41:34;28.38;;;17.15;;
18822;SDS011;9540;51.550;7.980;2023-02-03T03:44:08;26.50;;;16.27;;
18822;SDS011;9540;51.550;7.980;2023-02-03T03:46:39;27.20;;;15.90;;
18822;SDS011;9540;51.550;7.980;2023-02-03T03:49:12;22.35;;;15.35;;
18822;SDS011;9540;51.550;7.980;2023-02-03T03:51:42;25.05;;;15.02;;
18822;SDS011;9540;51.550;7.980;2023-02-03T03:54:14;27.65;;;16.10;;
18822;SDS011;9540;51.550;7.980;2023-02-03T03:56:45;19.30;;;13.65;;
18822;SDS011;9540;51.550;7.980;2023-02-03T03:59:16;21.73;;;15.43;;
18822;SDS011;9540;51.550;7.980;2023-02-03T04:01:46;19.67;;;13.55;;
18822;SDS011;9540;51.550;7.980;2023-02-03T04:04:20;30.60;;;14.95;;
18822;SDS011;9540;51.550;7.980;2023-02-03T04:06:51;22.27;;;13.02;;
18822;SDS011;9540;51.550;7.980;2023-02-03T04:09:18;28.75;;;14.10;;
18822;SDS011;9540;51.550;7.980;2023-02-03T04:11:46;23.23;;;13.40;;
18822;SDS011;9540;51.550;7.980;2023-02-03T04:14:33;21.27;;;12.88;;
18822;SDS011;9540;51.550;7.980;2023-02-03T04:17:02;28.48;;;13.82;;
18822;SDS011;9540;51.550;7.980;2023-02-03T04:19:31;18.27;;;11.90;;
18822;SDS011;9540;51.550;7.980;2023-02-03T04:21:58;18.35;;;12.55;;
18822;SDS011;9540;51.550;7.980;2023-02-03T04:24:25;18.40;;;11.90;;
18822;SDS011;9540;51.550;7.980;2023-02-03T04:26:52;20.48;;;11.70;;
18822;SDS011;9540;51.550;7.980;2023-02-03T04:29:19;18.70;;;11.38;;
18822;SDS011;9540;51.550;7.980;2023-02-03T04:31:47;21.95;;;10.77;;
18822;SDS011;9540;51.550;7.980;2023-02-03T04:34:14;19.58;;;11.25;;
18822;SDS011;9540;51.550;7.980;2023-02-03T04:36:42;16.25;;;11.18;;
18822;SDS011;9540;51.550;7.980;2023-02-03T04:39:09;18.83;;;10.90;;
18822;SDS011;9540;51.550;7.980;2023-02-03T04:41:36;12.27;;;9.85;;
18822;SDS011;9540;51.550;7.980;2023-02-03T04:44:03;15.40;;;9.80;;
18822;SDS011;9540;51.550;7.980;2023-02-03T04:46:31;19.85;;;10.00;;
18822;SDS011;9540;51.550;7.980;2023-02-03T04:48:59;17.48;;;9.75;;
18822;SDS011;9540;51.550;7.980;2023-02-03T04:51:26;14.98;;;9.85;;
18822;SDS011;9540;51.550;7.980;2023-02-03T04:53:55;21.73;;;9.85;;
18822;SDS011;9540;51.550;7.980;2023-02-03T04:56:22;17.08;;;9.15;;
18822;SDS011;9540;51.550;7.980;2023-02-03T04:58:49;15.32;;;8.75;;
18822;SDS011;9540;51.550;7.980;2023-02-03T05:01:16;16.13;;;10.32;;
18822;SDS011;9540;51.550;7.980;2023-02-03T05:03:43;16.45;;;8.63;;
18822;SDS011;9540;51.550;7.980;2023-02-03T05:06:10;14.52;;;8.68;;
18822;SDS011;9540;51.550;7.980;2023-02-03T05:08:37;16.70;;;9.23;;
18822;SDS011;9540;51.550;7.980;2023-02-03T05:11:06;15.48;;;9.68;;
18822;SDS011;9540;51.550;7.980;2023-02-03T05:13:33;16.00;;;8.80;;
18822;SDS011;9540;51.550;7.980;2023-02-03T05:16:00;13.73;;;8.55;;
18822;SDS011;9540;51.550;7.980;2023-02-03T05:18:27;18.38;;;9.90;;
18822;SDS011;9540;51.550;7.980;2023-02-03T05:20:54;16.52;;;9.23;;
18822;SDS011;9540;51.550;7.980;2023-02-03T05:23:21;14.02;;;9.18;;
18822;SDS011;9540;51.550;7.980;2023-02-03T05:25:48;16.88;;;8.27;;
18822;SDS011;9540;51.550;7.980;2023-02-03T05:28:17;15.10;;;8.50;;
18822;SDS011;9540;51.550;7.980;2023-02-03T05:30:44;22.70;;;9.88;;
18822;SDS011;9540;51.550;7.980;2023-02-03T05:33:11;15.05;;;9.50;;
18822;SDS011;9540;51.550;7.980;2023-02-03T05:35:38;20.02;;;9.40;;
18822;SDS011;9540;51.550;7.980;2023-02-03T05:38:06;16.30;;;10.05;;
18822;SDS011;9540;51.550;7.980;2023-02-03T05:40:33;16.42;;;9.32;;
18822;SDS011;9540;51.550;7.980;2023-02-03T05:43:19;14.18;;;8.95;;
18822;SDS011;9540;51.550;7.980;2023-02-03T05:45:46;18.15;;;8.75;;
18822;SDS011;9540;51.550;7.980;2023-02-03T05:48:13;21.58;;;10.43;;
18822;SDS011;9540;51.550;7.980;2023-02-03T05:50:41;19.42;;;9.50;;
18822;SDS011;9540;51.550;7.980;2023-02-03T05:53:09;16.60;;;9.32;;
18822;SDS011;9540;51.550;7.980;2023-02-03T05:55:36;12.95;;;9.32;;
18822;SDS011;9540;51.550;7.980;2023-02-03T05:58:03;10.63;;;8.95;;
18822;SDS011;9540;51.550;7.980;2023-02-03T06:00:32;20.45;;;9.68;;
18822;SDS011;9540;51.550;7.980;2023-02-03T06:02:59;14.23;;;9.20;;
18822;SDS011;9540;51.550;7.980;2023-02-03T06:05:29;19.45;;;9.45;;
18822;SDS011;9540;51.550;7.980;2023-02-03T06:07:58;17.63;;;9.48;;
18822;SDS011;9540;51.550;7.980;2023-02-03T06:10:27;21.42;;;9.55;;
18822;SDS011;9540;51.550;7.980;2023-02-03T06:12:56;16.17;;;8.90;;
18822;SDS011;9540;51.550;7.980;2023-02-03T06:15:23;17.63;;;8.43;;
18822;SDS011;9540;51.550;7.980;2023-02-03T06:17:54;14.90;;;8.02;;
18822;SDS011;9540;51.550;7.980;2023-02-03T06:20:21;14.88;;;8.27;;
18822;SDS011;9540;51.550;7.980;2023-02-03T06:22:48;13.73;;;7.70;;
18822;SDS011;9540;51.550;7.980;2023-02-03T06:25:15;15.65;;;8.15;;
18822;SDS011;9540;51.550;7.980;2023-02-03T06:27:42;16.52;;;8.75;;
18822;SDS011;9540;51.550;7.980;2023-02-03T06:30:10;12.07;;;8.18;;
18822;SDS011;9540;51.550;7.980;2023-02-03T06:32:38;19.33;;;9.38;;
18822;SDS011;9540;51.550;7.980;2023-02-03T06:35:07;14.15;;;8.73;;
18822;SDS011;9540;51.550;7.980;2023-02-03T06:37:34;16.95;;;10.10;;
18822;SDS011;9540;51.550;7.980;2023-02-03T06:40:02;10.38;;;9.07;;
18822;SDS011;9540;51.550;7.980;2023-02-03T06:42:30;12.85;;;9.55;;
18822;SDS011;9540;51.550;7.980;2023-02-03T06:44:57;19.67;;;9.25;;
18822;SDS011;9540;51.550;7.980;2023-02-03T06:47:24;18.63;;;8.70;;
18822;SDS011;9540;51.550;7.980;2023-02-03T06:49:51;18.52;;;9.65;;
18822;SDS011;9540;51.550;7.980;2023-02-03T06:52:20;13.00;;;9.38;;
18822;SDS011;9540;51.550;7.980;2023-02-03T06:54:47;18.20;;;10.77;;
18822;SDS011;9540;51.550;7.980;2023-02-03T06:57:14;20.05;;;10.52;;
18822;SDS011;9540;51.550;7.980;2023-02-03T06:59:41;19.52;;;10.25;;
18822;SDS011;9540;51.550;7.980;2023-02-03T07:02:09;17.45;;;11.05;;
18822;SDS011;9540;51.550;7.980;2023-02-03T07:04:37;30.60;;;13.10;;
18822;SDS011;9540;51.550;7.980;2023-02-03T07:07:04;21.08;;;11.55;;
18822;SDS011;9540;51.550;7.980;2023-02-03T07:09:32;24.00;;;12.15;;
18822;SDS011;9540;51.550;7.980;2023-02-03T07:11:59;20.90;;;11.88;;
18822;SDS011;9540;51.550;7.980;2023-02-03T07:14:27;21.80;;;11.43;;
18822;SDS011;9540;51.550;7.980;2023-02-03T07:16:55;16.73;;;10.95;;
18822;SDS011;9540;51.550;7.980;2023-02-03T07:19:22;17.77;;;10.52;;
18822;SDS011;9540;51.550;7.980;2023-02-03T07:21:49;16.45;;;11.23;;
18822;SDS011;9540;51.550;7.980;2023-02-03T07:24:17;30.60;;;13.23;;
18822;SDS011;9540;51.550;7.980;2023-02-03T07:26:45;25.88;;;13.27;;
18822;SDS011;9540;51.550;7.980;2023-02-03T07:29:12;22.50;;;13.32;;
18822;SDS011;9540;51.550;7.980;2023-02-03T07:31:40;21.52;;;13.70;;
18822;SDS011;9540;51.550;7.980;2023-02-03T07:34:07;30.13;;;15.48;;
18822;SDS011;9540;51.550;7.980;2023-02-03T07:36:34;23.23;;;14.15;;
18822;SDS011;9540;51.550;7.980;2023-02-03T07:39:01;29.17;;;16.10;;
18822;SDS011;9540;51.550;7.980;2023-02-03T07:41:28;24.33;;;14.98;;
18822;SDS011;9540;51.550;7.980;2023-02-03T07:43:57;25.33;;;15.20;;
18822;SDS011;9540;51.550;7.980;2023-02-03T07:46:24;25.83;;;15.05;;
18822;SDS011;9540;51.550;7.980;2023-02-03T07:48:52;26.63;;;15.40;;
18822;SDS011;9540;51.550;7.980;2023-02-03T07:51:19;19.77;;;13.52;;
18822;SDS011;9540;51.550;7.980;2023-02-03T07:53:46;20.13;;;13.93;;
18822;SDS011;9540;51.550;7.980;2023-02-03T07:56:13;19.02;;;13.20;;
18822;SDS011;9540;51.550;7.980;2023-02-03T07:58:41;16.02;;;12.63;;
18822;SDS011;9540;51.550;7.980;2023-02-03T08:01:13;20.38;;;12.77;;
18822;SDS011;9540;51.550;7.980;2023-02-03T08:03:42;20.35;;;12.55;;
18822;SDS011;9540;51.550;7.980;2023-02-03T08:06:09;19.88;;;12.65;;
18822;SDS011;9540;51.550;7.980;2023-02-03T08:08:36;20.55;;;14.18;;
18822;SDS011;9540;51.550;7.980;2023-02-03T08:11:05;23.15;;;13.50;;
18822;SDS011;9540;51.550;7.980;2023-02-03T08:13:32;20.85;;;13.95;;
18822;SDS011;9540;51.550;7.980;2023-02-03T08:16:00;24.35;;;13.88;;
18822;SDS011;9540;51.550;7.980;2023-02-03T08:18:28;20.95;;;15.32;;
18822;SDS011;9540;51.550;7.980;2023-02-03T08:20:56;21.48;;;14.05;;
18822;SDS011;9540;51.550;7.980;2023-02-03T08:23:23;19.23;;;13.35;;
18822;SDS011;9540;51.550;7.980;2023-02-03T08:25:50;19.67;;;13.27;;
18822;SDS011;9540;51.550;7.980;2023-02-03T08:28:18;26.10;;;15.18;;
18822;SDS011;9540;51.550;7.980;2023-02-03T08:30:45;21.35;;;14.25;;
18822;SDS011;9540;51.550;7.980;2023-02-03T08:33:12;25.45;;;14.23;;
18822;SDS011;9540;51.550;7.980;2023-02-03T08:35:43;26.17;;;14.38;;
18822;SDS011;9540;51.550;7.980;2023-02-03T08:38:11;21.80;;;14.45;;
18822;SDS011;9540;51.550;7.980;2023-02-03T08:40:38;21.60;;;14.02;;
18822;SDS011;9540;51.550;7.980;2023-02-03T08:43:06;21.92;;;14.63;;
18822;SDS011;9540;51.550;7.980;2023-02-03T08:45:33;23.83;;;16.05;;
18822;SDS011;9540;51.550;7.980;2023-02-03T08:48:03;24.48;;;15.27;;
18822;SDS011;9540;51.550;7.980;2023-02-03T08:50:31;28.80;;;16.98;;
18822;SDS011;9540;51.550;7.980;2023-02-03T08:53:02;30.38;;;18.20;;
18822;SDS011;9540;51.550;7.980;2023-02-03T08:55:30;35.35;;;17.83;;
18822;SDS011;9540;51.550;7.980;2023-02-03T08:57:57;24.60;;;18.27;;
18822;SDS011;9540;51.550;7.980;2023-02-03T09:00:24;30.17;;;18.95;;
18822;SDS011;9540;51.550;7.980;2023-02-03T09:02:51;26.35;;;19.13;;
18822;SDS011;9540;51.550;7.980;2023-02-03T09:05:19;31.27;;;20.17;;
18822;SDS011;9540;51.550;7.980;2023-02-03T09:07:46;34.83;;;20.73;;
18822;SDS011;9540;51.550;7.980;2023-02-03T09:10:16;34.60;;;19.63;;
18822;SDS011;9540;51.550;7.980;2023-02-03T09:12:44;31.50;;;19.60;;
18822;SDS011;9540;51.550;7.980;2023-02-03T09:15:12;36.72;;;20.05;;
18822;SDS011;9540;51.550;7.980;2023-02-03T09:17:41;31.25;;;19.38;;
18822;SDS011;9540;51.550;7.980;2023-02-03T09:20:15;30.27;;;19.10;;
18822;SDS011;9540;51.550;7.980;2023-02-03T09:22:44;32.45;;;19.65;;
18822;SDS011;9540;51.550;7.980;2023-02-03T09:25:12;30.33;;;18.85;;
18822;SDS011;9540;51.550;7.980;2023-02-03T09:27:43;34.42;;;18.83;;
18822;SDS011;9540;51.550;7.980;2023-02-03T09:30:11;31.95;;;18.73;;
18822;SDS011;9540;51.550;7.980;2023-02-03T09:32:40;34.08;;;18.40;;
18822;SDS011;9540;51.550;7.980;2023-02-03T09:35:09;30.08;;;18.52;;
18822;SDS011;9540;51.550;7.980;2023-02-03T09:37:37;29.90;;;18.15;;
18822;SDS011;9540;51.550;7.980;2023-02-03T09:40:06;26.23;;;16.75;;
18822;SDS011;9540;51.550;7.980;2023-02-03T09:42:39;26.17;;;16.92;;
18822;SDS011;9540;51.550;7.980;2023-02-03T09:45:27;24.98;;;17.08;;
18822;SDS011;9540;51.550;7.980;2023-02-03T09:47:58;22.00;;;15.85;;
18822;SDS011;9540;51.550;7.980;2023-02-03T09:50:31;26.80;;;16.13;;
18822;SDS011;9540;51.550;7.980;2023-02-03T09:53:02;33.67;;;16.55;;
18822;SDS011;9540;51.550;7.980;2023-02-03T09:55:34;27.35;;;16.30;;
18822;SDS011;9540;51.550;7.980;2023-02-03T09:58:08;23.13;;;15.48;;
18822;SDS011;9540;51.550;7.980;2023-02-03T10:00:39;24.00;;;15.45;;
18822;SDS011;9540;51.550;7.980;2023-02-03T10:03:12;34.45;;;16.50;;
18822;SDS011;9540;51.550;7.980;2023-02-03T10:05:53;23.35;;;15.20;;
18822;SDS011;9540;51.550;7.980;2023-02-03T10:08:33;28.63;;;15.63;;
18822;SDS011;9540;51.550;7.980;2023-02-03T10:11:11;19.33;;;13.07;;
18822;SDS011;9540;51.550;7.980;2023-02-03T10:13:50;17.98;;;13.40;;
18822;SDS011;9540;51.550;7.980;2023-02-03T10:16:28;21.15;;;13.07;;
18822;SDS011;9540;51.550;7.980;2023-02-03T10:19:10;14.10;;;11.77;;
18822;SDS011;9540;51.550;7.980;2023-02-03T10:21:41;20.25;;;12.30;;
18822;SDS011;9540;51.550;7.980;2023-02-03T10:24:14;20.02;;;12.20;;
18822;SDS011;9540;51.550;7.980;2023-02-03T10:26:44;22.70;;;11.98;;
18822;SDS011;9540;51.550;7.980;2023-02-03T10:29:15;25.42;;;11.88;;
18822;SDS011;9540;51.550;7.980;2023-02-03T10:31:45;21.02;;;10.98;;
18822;SDS011;9540;51.550;7.980;2023-02-03T10:34:13;20.60;;;11.82;;
18822;SDS011;9540;51.550;7.980;2023-02-03T10:36:52;16.02;;;10.55;;
18822;SDS011;9540;51.550;7.980;2023-02-03T10:39:23;24.25;;;12.63;;
18822;SDS011;9540;51.550;7.980;2023-02-03T10:41:56;17.83;;;11.95;;
18822;SDS011;9540;51.550;7.980;2023-02-03T10:44:32;24.73;;;13.52;;
18822;SDS011;9540;51.550;7.980;2023-02-03T10:47:10;20.13;;;13.45;;
18822;SDS011;9540;51.550;7.980;2023-02-03T10:49:45;20.45;;;14.25;;
18822;SDS011;9540;51.550;7.980;2023-02-03T10:52:23;23.63;;;13.23;;
18822;SDS011;9540;51.550;7.980;2023-02-03T10:54:53;18.70;;;12.48;;
18822;SDS011;9540;51.550;7.980;2023-02-03T10:57:23;18.38;;;12.35;;
18822;SDS011;9540;51.550;7.980;2023-02-03T10:59:52;17.50;;;12.07;;
18822;SDS011;9540;51.550;7.980;2023-02-03T11:02:33;26.45;;;12.20;;
18822;SDS011;9540;51.550;7.980;2023-02-03T11:05:08;20.02;;;12.10;;
18822;SDS011;9540;51.550;7.980;2023-02-03T11:07:36;19.40;;;11.40;;
18822;SDS011;9540;51.550;7.980;2023-02-03T11:10:11;22.58;;;11.18;;
18822;SDS011;9540;51.550;7.980;2023-02-03T11:12:57;23.30;;;10.65;;
18822;SDS011;9540;51.550;7.980;2023-02-03T11:15:44;16.55;;;9.90;;
18822;SDS011;9540;51.550;7.980;2023-02-03T11:21:14;15.27;;;8.23;;
18822;SDS011;9540;51.550;7.980;2023-02-03T11:23:50;16.38;;;8.48;;
18822;SDS011;9540;51.550;7.980;2023-02-03T11:26:21;18.40;;;8.63;;
18822;SDS011;9540;51.550;7.980;2023-02-03T11:28:52;15.23;;;8.40;;
18822;SDS011;9540;51.550;7.980;2023-02-03T11:31:24;17.15;;;8.98;;
18822;SDS011;9540;51.550;7.980;2023-02-03T11:33:53;13.88;;;9.02;;
18822;SDS011;9540;51.550;7.980;2023-02-03T11:36:24;19.08;;;9.27;;
18822;SDS011;9540;51.550;7.980;2023-02-03T11:38:58;16.35;;;9.88;;
18822;SDS011;9540;51.550;7.980;2023-02-03T11:41:42;23.83;;;10.60;;
18822;SDS011;9540;51.550;7.980;2023-02-03T11:44:11;24.08;;;10.93;;
18822;SDS011;9540;51.550;7.980;2023-02-03T11:46:43;23.75;;;11.13;;
18822;SDS011;9540;51.550;7.980;2023-02-03T11:49:15;17.80;;;10.85;;
18822;SDS011;9540;51.550;7.980;2023-02-03T11:52:18;18.73;;;10.48;;
18822;SDS011;9540;51.550;7.980;2023-02-03T11:55:07;24.13;;;9.68;;
18822;SDS011;9540;51.550;7.980;2023-02-03T11:57:48;22.20;;;9.68;;
18822;SDS011;9540;51.550;7.980;2023-02-03T12:00:28;20.80;;;9.13;;
18822;SDS011;9540;51.550;7.980;2023-02-03T12:06:08;16.13;;;8.20;;
18822;SDS011;9540;51.550;7.980;2023-02-03T12:11:50;20.45;;;8.88;;
18822;SDS011;9540;51.550;7.980;2023-02-03T12:14:36;14.70;;;8.32;;
18822;SDS011;9540;51.550;7.980;2023-02-03T12:17:20;19.90;;;8.57;;
18822;SDS011;9540;51.550;7.980;2023-02-03T12:20:05;15.85;;;9.18;;
18822;SDS011;9540;51.550;7.980;2023-02-03T12:22:58;20.80;;;10.20;;
18822;SDS011;9540;51.550;7.980;2023-02-03T12:25:35;21.83;;;10.75;;
18822;SDS011;9540;51.550;7.980;2023-02-03T12:28:13;21.45;;;11.98;;
18822;SDS011;9540;51.550;7.980;2023-02-03T12:30:50;21.13;;;12.20;;
18822;SDS011;9540;51.550;7.980;2023-02-03T12:33:31;30.02;;;11.02;;
18822;SDS011;9540;51.550;7.980;2023-02-03T12:36:07;28.80;;;12.82;;
18822;SDS011;9540;51.550;7.980;2023-02-03T12:38:41;23.25;;;11.88;;
18822;SDS011;9540;51.550;7.980;2023-02-03T12:41:17;24.80;;;12.75;;
18822;SDS011;9540;51.550;7.980;2023-02-03T12:43:51;24.75;;;13.88;;
18822;SDS011;9540;51.550;7.980;2023-02-03T12:46:26;32.63;;;12.43;;
18822;SDS011;9540;51.550;7.980;2023-02-03T12:48:59;24.38;;;14.20;;
18822;SDS011;9540;51.550;7.980;2023-02-03T12:51:32;36.97;;;13.75;;
18822;SDS011;9540;51.550;7.980;2023-02-03T12:54:06;33.83;;;14.13;;
18822;SDS011;9540;51.550;7.980;2023-02-03T12:56:40;25.00;;;12.55;;
18822;SDS011;9540;51.550;7.980;2023-02-03T12:59:13;29.08;;;13.70;;
18822;SDS011;9540;51.550;7.980;2023-02-03T13:01:46;23.17;;;12.80;;
18822;SDS011;9540;51.550;7.980;2023-02-03T13:04:23;23.92;;;11.40;;
18822;SDS011;9540;51.550;7.980;2023-02-03T13:06:59;21.67;;;11.70;;
18822;SDS011;9540;51.550;7.980;2023-02-03T13:09:37;22.33;;;10.55;;
18822;SDS011;9540;51.550;7.980;2023-02-03T13:12:07;29.23;;;11.68;;
18822;SDS011;9540;51.550;7.980;2023-02-03T13:14:41;27.00;;;7.78;;
18822;SDS011;9540;51.550;7.980;2023-02-03T13:17:14;21.58;;;6.20;;
18822;SDS011;9540;51.550;7.980;2023-02-03T13:19:47;28.48;;;6.47;;
18822;SDS011;9540;51.550;7.980;2023-02-03T13:22:19;22.70;;;5.75;;
18822;SDS011;9540;51.550;7.980;2023-02-03T13:24:51;17.77;;;4.88;;
18822;SDS011;9540;51.550;7.980;2023-02-03T13:27:33;23.70;;;5.88;;
18822;SDS011;9540;51.550;7.980;2023-02-03T13:30:25;22.58;;;6.03;;
18822;SDS011;9540;51.550;7.980;2023-02-03T13:33:09;26.83;;;6.43;;
18822;SDS011;9540;51.550;7.980;2023-02-03T13:36:00;17.75;;;4.07;;
18822;SDS011;9540;51.550;7.980;2023-02-03T13:38:42;15.68;;;4.43;;
18822;SDS011;9540;51.550;7.980;2023-02-03T13:41:29;18.10;;;4.55;;
18822;SDS011;9540;51.550;7.980;2023-02-03T13:44:02;23.55;;;5.72;;
18822;SDS011;9540;51.550;7.980;2023-02-03T13:46:30;16.13;;;4.32;;
18822;SDS011;9540;51.550;7.980;2023-02-03T13:49:00;20.27;;;4.68;;
18822;SDS011;9540;51.550;7.980;2023-02-03T13:51:30;20.20;;;4.43;;
18822;SDS011;9540;51.550;7.980;2023-02-03T13:54:00;23.30;;;5.10;;
18822;SDS011;9540;51.550;7.980;2023-02-03T13:56:33;28.40;;;5.32;;
18822;SDS011;9540;51.550;7.980;2023-02-03T13:59:02;31.52;;;5.32;;
18822;SDS011;9540;51.550;7.980;2023-02-03T14:01:32;33.80;;;6.00;;
18822;SDS011;9540;51.550;7.980;2023-02-03T14:04:03;24.85;;;4.82;;
18822;SDS011;9540;51.550;7.980;2023-02-03T14:09:38;34.28;;;5.05;;
18822;SDS011;9540;51.550;7.980;2023-02-03T14:15:33;21.70;;;5.38;;
18822;SDS011;9540;51.550;7.980;2023-02-03T14:18:02;25.30;;;5.88;;
18822;SDS011;9540;51.550;7.980;2023-02-03T14:20:51;24.63;;;5.38;;
18822;SDS011;9540;51.550;7.980;2023-02-03T14:23:24;33.55;;;5.70;;
18822;SDS011;9540;51.550;7.980;2023-02-03T14:25:55;26.95;;;5.00;;
18822;SDS011;9540;51.550;7.980;2023-02-03T14:28:28;29.05;;;5.50;;
18822;SDS011;9540;51.550;7.980;2023-02-03T14:31:05;32.55;;;5.85;;
18822;SDS011;9540;51.550;7.980;2023-02-03T14:33:53;31.73;;;6.25;;
18822;SDS011;9540;51.550;7.980;2023-02-03T14:36:33;29.58;;;5.65;;
18822;SDS011;9540;51.550;7.980;2023-02-03T14:39:05;32.15;;;6.75;;
18822;SDS011;9540;51.550;7.980;2023-02-03T14:42:22;25.60;;;5.72;;
18822;SDS011;9540;51.550;7.980;2023-02-03T14:45:15;29.33;;;5.47;;
18822;SDS011;9540;51.550;7.980;2023-02-03T14:50:51;32.80;;;5.70;;
18822;SDS011;9540;51.550;7.980;2023-02-03T14:53:31;26.75;;;5.40;;
18822;SDS011;9540;51.550;7.980;2023-02-03T14:56:11;30.00;;;7.65;;
18822;SDS011;9540;51.550;7.980;2023-02-03T14:58:44;34.63;;;6.72;;
18822;SDS011;9540;51.550;7.980;2023-02-03T15:01:25;30.13;;;4.93;;
18822;SDS011;9540;51.550;7.980;2023-02-03T15:04:23;23.75;;;5.90;;
18822;SDS011;9540;51.550;7.980;2023-02-03T15:06:51;33.78;;;6.28;;
18822;SDS011;9540;51.550;7.980;2023-02-03T15:09:26;29.92;;;6.25;;
18822;SDS011;9540;51.550;7.980;2023-02-03T15:11:56;31.73;;;7.18;;
18822;SDS011;9540;51.550;7.980;2023-02-03T15:14:24;31.63;;;8.40;;
18822;SDS011;9540;51.550;7.980;2023-02-03T15:16:53;29.60;;;6.80;;
18822;SDS011;9540;51.550;7.980;2023-02-03T15:19:24;39.75;;;7.32;;
18822;SDS011;9540;51.550;7.980;2023-02-03T15:21:55;26.88;;;5.53;;
18822;SDS011;9540;51.550;7.980;2023-02-03T15:24:23;28.30;;;5.70;;